Time;durP1;ratioP1;P1;durP2;ratioP2;P2;SDS_P1;SDS_P2;PMS_P1;PMS_P2;Temp;Humidity;BMP_temperature;BMP_pressure;BME280_temperature;BME280_humidity;BME280_pressure;Samples;Min_cycle;Max_cycle;Signal;HPM_P1;HPM_P2
2024/01/27 00:00:14;;;;;;;3.17;0.70;;;;;;;;;;4999431;28;20260;-79
2024/01/27 00:02:39;;;;;;;6.72;1.15;;;;;;;;;;4999418;28;20275;-78
2024/01/27 00:05:04;;;;;;;7.82;1.10;;;;;;;;;;4998215;28;20026;-78
2024/01/27 00:07:29;;;;;;;6.07;0.80;;;;;;;;;;4997343;28;20041;-77
2024/01/27 00:09:55;;;;;;;5.53;0.80;;;;;;;;;;4998581;28;20026;-77
2024/01/27 00:12:21;;;;;;;3.00;1.15;;;;;;;;;;4999580;28;20058;-78
2024/01/27 00:14:46;;;;;;;3.88;0.80;;;;;;;;;;4999460;28;20023;-76
2024/01/27 00:17:11;;;;;;;4.88;1.05;;;;;;;;;;4999444;28;20041;-78
2024/01/27 00:19:36;;;;;;;5.95;0.77;;;;;;;;;;4998025;28;20083;-78
2024/01/27 00:22:02;;;;;;;2.63;0.60;;;;;;;;;;4998798;28;20090;-79
2024/01/27 00:24:27;;;;;;;4.45;0.70;;;;;;;;;;4998535;28;20294;-77
2024/01/27 00:26:52;;;;;;;6.25;1.00;;;;;;;;;;4997938;28;20022;-79
2024/01/27 00:29:18;;;;;;;4.38;0.70;;;;;;;;;;4997717;28;20026;-76
2024/01/27 00:31:43;;;;;;;1.70;0.52;;;;;;;;;;4997132;28;20109;-77
2024/01/27 00:34:08;;;;;;;4.13;0.88;;;;;;;;;;4997937;28;20077;-80
2024/01/27 00:36:36;;;;;;;6.18;1.23;;;;;;;;;;4997311;28;20026;-78
2024/01/27 00:39:03;;;;;;;2.45;0.90;;;;;;;;;;4998404;28;20033;-77
2024/01/27 00:41:28;;;;;;;3.25;0.98;;;;;;;;;;4997917;28;20034;-78
2024/01/27 00:43:53;;;;;;;7.43;1.10;;;;;;;;;;4997976;28;20034;-77
2024/01/27 00:46:18;;;;;;;5.40;1.10;;;;;;;;;;4996184;28;20426;-78
2024/01/27 00:48:44;;;;;;;4.33;1.30;;;;;;;;;;4997097;28;20421;-78
2024/01/27 00:51:09;;;;;;;2.77;0.70;;;;;;;;;;4997498;28;20743;-77
2024/01/27 00:53:34;;;;;;;3.40;1.03;;;;;;;;;;4995228;28;20774;-78
2024/01/27 00:55:59;;;;;;;5.63;0.98;;;;;;;;;;4997710;28;20747;-78
2024/01/27 00:58:25;;;;;;;5.68;0.88;;;;;;;;;;4996934;28;20499;-78
2024/01/27 01:00:50;;;;;;;6.05;1.00;;;;;;;;;;4997254;28;20497;-78
2024/01/27 01:03:15;;;;;;;6.75;1.05;;;;;;;;;;4979266;28;20428;-78
2024/01/27 01:05:41;;;;;;;0.90;0.50;;;;;;;;;;4997412;28;20453;-78
2024/01/27 01:08:06;;;;;;;5.27;1.00;;;;;;;;;;4996909;28;20705;-78
2024/01/27 01:10:32;;;;;;;1.08;0.75;;;;;;;;;;4997668;28;20621;-77
2024/01/27 01:12:57;;;;;;;2.50;0.73;;;;;;;;;;4996979;28;20030;-78
2024/01/27 01:15:22;;;;;;;5.70;1.00;;;;;;;;;;4996654;28;20022;-78
2024/01/27 01:17:48;;;;;;;5.37;1.23;;;;;;;;;;4997271;28;20033;-78
2024/01/27 01:20:13;;;;;;;2.53;0.70;;;;;;;;;;4996170;28;20268;-77
2024/01/27 01:22:38;;;;;;;7.55;1.10;;;;;;;;;;4978717;28;20022;-78
2024/01/27 01:25:04;;;;;;;4.15;0.80;;;;;;;;;;4978463;28;20061;-78
2024/01/27 01:27:29;;;;;;;6.57;1.00;;;;;;;;;;4995442;28;20080;-78
2024/01/27 01:29:54;;;;;;;3.13;0.70;;;;;;;;;;4996391;28;20029;-77
2024/01/27 01:32:20;;;;;;;3.20;0.67;;;;;;;;;;4977896;28;20268;-78
2024/01/27 01:34:46;;;;;;;5.05;1.00;;;;;;;;;;4994554;28;20266;-78
2024/01/27 01:37:13;;;;;;;5.60;0.82;;;;;;;;;;4995366;28;20062;-78
2024/01/27 01:39:38;;;;;;;8.18;0.98;;;;;;;;;;4977539;28;20501;-78
2024/01/27 01:42:03;;;;;;;4.53;0.82;;;;;;;;;;4995204;28;20105;-79
2024/01/27 01:44:31;;;;;;;2.42;0.82;;;;;;;;;;4995154;28;20474;-78
2024/01/27 01:46:56;;;;;;;4.28;1.17;;;;;;;;;;4993811;28;20397;-78
2024/01/27 01:49:22;;;;;;;5.97;1.20;;;;;;;;;;4996087;28;20117;-78
2024/01/27 01:51:48;;;;;;;7.85;1.38;;;;;;;;;;4996220;28;20116;-79
2024/01/27 01:54:13;;;;;;;2.53;0.95;;;;;;;;;;4993512;28;20068;-78
2024/01/27 01:56:38;;;;;;;7.60;0.70;;;;;;;;;;4977708;28;20099;-77
2024/01/27 01:59:03;;;;;;;4.47;0.82;;;;;;;;;;4977655;28;20026;-78
2024/01/27 02:01:28;;;;;;;5.93;0.90;;;;;;;;;;4995129;28;20069;-78
2024/01/27 02:03:54;;;;;;;3.73;1.03;;;;;;;;;;4995275;28;20260;-77
2024/01/27 02:06:20;;;;;;;2.88;0.85;;;;;;;;;;4995480;28;20282;-77
2024/01/27 02:08:45;;;;;;;5.35;1.02;;;;;;;;;;4995665;28;20393;-78
2024/01/27 02:11:11;;;;;;;1.98;0.63;;;;;;;;;;4993998;28;20034;-78
2024/01/27 02:13:36;;;;;;;8.40;1.35;;;;;;;;;;4976581;28;20504;-77
2024/01/27 02:16:01;;;;;;;3.72;0.90;;;;;;;;;;4995552;28;20026;-78
2024/01/27 02:18:26;;;;;;;6.50;1.13;;;;;;;;;;4978032;28;20125;-79
2024/01/27 02:20:52;;;;;;;5.30;1.00;;;;;;;;;;4994925;28;20085;-80
2024/01/27 02:23:17;;;;;;;5.22;1.27;;;;;;;;;;4996506;28;20018;-77
2024/01/27 02:25:42;;;;;;;5.28;1.00;;;;;;;;;;4977985;28;20389;-77
2024/01/27 02:28:08;;;;;;;7.50;1.00;;;;;;;;;;4995566;28;20081;-78
2024/01/27 02:30:33;;;;;;;4.03;0.75;;;;;;;;;;4995627;28;20022;-77
2024/01/27 02:32:58;;;;;;;10.35;1.25;;;;;;;;;;4996447;28;20057;-78
2024/01/27 02:35:24;;;;;;;6.35;0.98;;;;;;;;;;4979481;28;20034;-78
2024/01/27 02:37:49;;;;;;;4.40;1.00;;;;;;;;;;4995989;28;20025;-79
2024/01/27 02:40:14;;;;;;;5.57;0.80;;;;;;;;;;4996469;28;20474;-78
2024/01/27 02:42:42;;;;;;;4.03;1.00;;;;;;;;;;4995817;28;20113;-78
2024/01/27 02:45:07;;;;;;;5.10;1.20;;;;;;;;;;4978458;28;20019;-77
2024/01/27 02:47:33;;;;;;;4.60;0.90;;;;;;;;;;4998998;28;20442;-78
2024/01/27 02:49:58;;;;;;;5.53;0.93;;;;;;;;;;5000351;28;20026;-78
2024/01/27 02:52:23;;;;;;;8.33;1.10;;;;;;;;;;4999912;28;20030;-78
2024/01/27 02:54:48;;;;;;;1.63;0.60;;;;;;;;;;4999585;28;20274;-78
2024/01/27 02:57:15;;;;;;;8.53;1.23;;;;;;;;;;4982375;28;20027;-77
2024/01/27 02:59:40;;;;;;;6.43;1.08;;;;;;;;;;4980900;28;20283;-76
2024/01/27 03:02:06;;;;;;;5.40;0.90;;;;;;;;;;4998653;28;20027;-78
2024/01/27 03:04:31;;;;;;;6.38;1.17;;;;;;;;;;4998918;28;20105;-78
2024/01/27 03:06:56;;;;;;;8.25;1.00;;;;;;;;;;4998976;28;20474;-76
2024/01/27 03:09:22;;;;;;;5.05;1.00;;;;;;;;;;4997916;28;20445;-77
2024/01/27 03:11:47;;;;;;;6.68;1.20;;;;;;;;;;4999360;28;20382;-77
2024/01/27 03:14:12;;;;;;;7.37;0.90;;;;;;;;;;4981744;28;20022;-76
2024/01/27 03:16:38;;;;;;;6.43;0.85;;;;;;;;;;4999095;28;20283;-79
2024/01/27 03:19:03;;;;;;;4.70;1.00;;;;;;;;;;4998910;28;20038;-79
2024/01/27 03:21:29;;;;;;;5.83;0.90;;;;;;;;;;4998312;28;20081;-79
2024/01/27 03:23:54;;;;;;;4.65;1.17;;;;;;;;;;4981821;28;20252;-77
2024/01/27 03:26:20;;;;;;;3.50;1.00;;;;;;;;;;4998206;28;20041;-78
2024/01/27 03:28:45;;;;;;;9.38;1.10;;;;;;;;;;4997557;28;20030;-77
2024/01/27 03:31:10;;;;;;;5.88;1.05;;;;;;;;;;4999930;28;20030;-78
2024/01/27 03:33:35;;;;;;;2.27;1.03;;;;;;;;;;4998788;28;20027;-77
2024/01/27 03:36:01;;;;;;;7.72;1.20;;;;;;;;;;4998355;28;20743;-78
2024/01/27 03:38:26;;;;;;;4.35;0.63;;;;;;;;;;4998458;28;20030;-77
2024/01/27 03:40:51;;;;;;;5.75;0.90;;;;;;;;;;4998067;28;20073;-78
2024/01/27 03:43:16;;;;;;;5.95;1.08;;;;;;;;;;4980975;28;20057;-77
2024/01/27 03:45:42;;;;;;;12.37;1.50;;;;;;;;;;4998652;28;20053;-78
2024/01/27 03:48:07;;;;;;;5.43;0.98;;;;;;;;;;4998727;28;20252;-77
2024/01/27 03:50:32;;;;;;;4.78;1.00;;;;;;;;;;4999144;28;20084;-79
2024/01/27 03:52:57;;;;;;;2.90;1.00;;;;;;;;;;4981571;28;20485;-78
2024/01/27 03:55:22;;;;;;;8.83;1.30;;;;;;;;;;4998452;28;20753;-78
2024/01/27 03:57:48;;;;;;;7.47;1.23;;;;;;;;;;4996685;28;20762;-78
2024/01/27 04:00:13;;;;;;;5.97;1.10;;;;;;;;;;4997565;28;20093;-76
2024/01/27 04:02:38;;;;;;;5.55;1.00;;;;;;;;;;4997865;28;20257;-78
2024/01/27 04:05:05;;;;;;;8.32;1.52;;;;;;;;;;4998955;28;20022;-78
2024/01/27 04:07:30;;;;;;;11.45;1.20;;;;;;;;;;4998578;28;20031;-79
2024/01/27 04:09:56;;;;;;;10.57;1.67;;;;;;;;;;4998731;28;20034;-78
2024/01/27 04:12:21;;;;;;;5.53;1.20;;;;;;;;;;4998239;28;20268;-77
2024/01/27 04:14:46;;;;;;;6.20;1.00;;;;;;;;;;4999349;28;20497;-78
2024/01/27 04:17:11;;;;;;;5.80;1.27;;;;;;;;;;4996368;28;20045;-77
2024/01/27 04:19:36;;;;;;;9.55;1.23;;;;;;;;;;4996380;28;20022;-77
2024/01/27 04:22:02;;;;;;;9.47;1.43;;;;;;;;;;4997732;28;20169;-79
2024/01/27 04:24:28;;;;;;;7.70;1.20;;;;;;;;;;4997588;28;20259;-77
2024/01/27 04:26:53;;;;;;;7.05;1.25;;;;;;;;;;4997615;28;20034;-78
2024/01/27 04:29:18;;;;;;;7.70;1.20;;;;;;;;;;4980649;28;20029;-78
2024/01/27 04:31:43;;;;;;;11.35;2.00;;;;;;;;;;4998614;28;20319;-79
2024/01/27 04:34:09;;;;;;;7.70;1.47;;;;;;;;;;4998671;28;20449;-78
2024/01/27 04:36:34;;;;;;;4.55;0.98;;;;;;;;;;4998499;28;20620;-79
2024/01/27 04:39:00;;;;;;;7.38;1.45;;;;;;;;;;4998088;28;20065;-78
2024/01/27 04:41:25;;;;;;;5.57;1.08;;;;;;;;;;4998105;28;20022;-79
2024/01/27 04:43:51;;;;;;;6.28;0.98;;;;;;;;;;4981502;28;20028;-79
2024/01/27 04:46:16;;;;;;;8.52;1.40;;;;;;;;;;4998152;28;20081;-77
2024/01/27 04:48:41;;;;;;;6.50;1.17;;;;;;;;;;4980040;28;20073;-77
2024/01/27 04:51:07;;;;;;;5.93;1.02;;;;;;;;;;4997744;28;20033;-77
2024/01/27 04:53:32;;;;;;;13.47;1.83;;;;;;;;;;4998013;28;20493;-78
2024/01/27 04:55:58;;;;;;;5.53;1.17;;;;;;;;;;4997775;28;20746;-77
2024/01/27 04:58:23;;;;;;;5.95;1.10;;;;;;;;;;4997238;28;20038;-77
2024/01/27 05:00:48;;;;;;;5.53;0.80;;;;;;;;;;4997312;28;20034;-80
2024/01/27 05:03:13;;;;;;;4.15;1.00;;;;;;;;;;4996701;28;20275;-77
2024/01/27 05:05:42;;;;;;;10.68;1.27;;;;;;;;;;4997882;28;20033;-77
2024/01/27 05:08:09;;;;;;;7.45;1.45;;;;;;;;;;4995657;28;20049;-79
2024/01/27 05:10:35;;;;;;;5.88;1.20;;;;;;;;;;4994541;28;20041;-78
2024/01/27 05:13:00;;;;;;;6.55;1.17;;;;;;;;;;4996599;28;20453;-77
2024/01/27 05:15:25;;;;;;;4.70;1.00;;;;;;;;;;4995749;28;20114;-75
2024/01/27 05:17:51;;;;;;;7.57;1.02;;;;;;;;;;4995798;28;20291;-79
2024/01/27 05:20:17;;;;;;;6.13;1.45;;;;;;;;;;4997139;28;20090;-78
2024/01/27 05:22:42;;;;;;;5.00;1.02;;;;;;;;;;4996084;28;20492;-79
2024/01/27 05:25:07;;;;;;;11.55;1.40;;;;;;;;;;4996494;28;20109;-76
2024/01/27 05:27:33;;;;;;;3.83;0.90;;;;;;;;;;4995625;28;20105;-78
2024/01/27 05:29:58;;;;;;;5.87;0.90;;;;;;;;;;4994987;28;20054;-78
2024/01/27 05:32:23;;;;;;;8.70;1.88;;;;;;;;;;4994900;28;20276;-80
2024/01/27 05:34:48;;;;;;;6.10;1.50;;;;;;;;;;4995686;28;20033;-79
2024/01/27 05:37:14;;;;;;;7.28;1.50;;;;;;;;;;4995628;28;20022;-77
2024/01/27 05:39:39;;;;;;;7.10;1.15;;;;;;;;;;4994752;28;20026;-78
2024/01/27 05:42:05;;;;;;;8.85;1.67;;;;;;;;;;4978647;28;20022;-78
2024/01/27 05:44:30;;;;;;;5.28;1.20;;;;;;;;;;4997010;28;20104;-79
2024/01/27 05:46:56;;;;;;;4.10;1.00;;;;;;;;;;4979054;28;20034;-78
2024/01/27 05:49:21;;;;;;;6.10;1.23;;;;;;;;;;4995923;28;20283;-77
2024/01/27 05:51:46;;;;;;;6.07;1.40;;;;;;;;;;4996703;28;20080;-78
2024/01/27 05:54:14;;;;;;;5.47;1.00;;;;;;;;;;4996941;28;20026;-80
2024/01/27 05:56:40;;;;;;;8.02;1.25;;;;;;;;;;4996081;28;20461;-77
2024/01/27 05:59:05;;;;;;;5.57;1.20;;;;;;;;;;4996013;28;20034;-77
2024/01/27 06:01:31;;;;;;;6.32;1.00;;;;;;;;;;4995978;28;20022;-79
2024/01/27 06:03:56;;;;;;;8.53;1.17;;;;;;;;;;4978276;28;20157;-79
2024/01/27 06:06:21;;;;;;;6.00;1.20;;;;;;;;;;4995805;28;20370;-76
2024/01/27 06:08:46;;;;;;;5.93;0.97;;;;;;;;;;4995302;28;20295;-79
2024/01/27 06:11:11;;;;;;;7.18;1.20;;;;;;;;;;4994454;28;20268;-78
2024/01/27 06:13:40;;;;;;;7.63;1.47;;;;;;;;;;4995865;28;20043;-78
2024/01/27 06:16:09;;;;;;;7.30;1.23;;;;;;;;;;4994773;28;20271;-77
2024/01/27 06:18:35;;;;;;;6.07;1.25;;;;;;;;;;4994395;28;20026;-77
2024/01/27 06:21:00;;;;;;;10.23;1.80;;;;;;;;;;4995993;28;20034;-77
2024/01/27 06:23:25;;;;;;;20.98;3.50;;;;;;;;;;4998554;28;20030;-76
2024/01/27 06:25:50;;;;;;;18.87;5.40;;;;;;;;;;4998812;28;20026;-78
2024/01/27 06:28:16;;;;;;;14.23;3.77;;;;;;;;;;4998415;28;20323;-78
2024/01/27 06:30:42;;;;;;;12.00;2.88;;;;;;;;;;4981307;28;20260;-78
2024/01/27 06:33:07;;;;;;;5.72;1.58;;;;;;;;;;4998632;28;20022;-78
2024/01/27 06:35:32;;;;;;;6.20;0.83;;;;;;;;;;4998703;28;20125;-77
2024/01/27 06:37:58;;;;;;;8.07;1.35;;;;;;;;;;4999287;28;20286;-78
2024/01/27 06:40:23;;;;;;;11.40;1.70;;;;;;;;;;4998892;28;20430;-77
2024/01/27 06:42:48;;;;;;;9.77;1.27;;;;;;;;;;4998067;28;20038;-77
2024/01/27 06:45:13;;;;;;;7.05;1.27;;;;;;;;;;4999027;28;20080;-78
2024/01/27 06:47:39;;;;;;;7.13;1.05;;;;;;;;;;4999337;28;20048;-78
2024/01/27 06:50:04;;;;;;;6.03;1.30;;;;;;;;;;4980559;28;20041;-78
2024/01/27 06:52:30;;;;;;;7.65;1.30;;;;;;;;;;4998160;28;20088;-77
2024/01/27 06:54:55;;;;;;;9.13;1.38;;;;;;;;;;4999372;28;20072;-77
2024/01/27 06:57:21;;;;;;;5.90;1.10;;;;;;;;;;4999629;28;20022;-78
2024/01/27 06:59:55;;;;;;;9.48;1.38;;;;;;;;;;4999654;28;20023;-78
2024/01/27 07:02:28;;;;;;;9.75;1.23;;;;;;;;;;4981815;28;20378;-78
2024/01/27 07:04:55;;;;;;;9.88;1.52;;;;;;;;;;4998220;28;20053;-78
2024/01/27 07:07:24;;;;;;;7.70;1.27;;;;;;;;;;4981868;28;20568;-78
2024/01/27 07:09:57;;;;;;;14.38;2.42;;;;;;;;;;4998877;28;20037;-77
2024/01/27 07:12:22;;;;;;;9.60;1.75;;;;;;;;;;4981005;28;20516;-77
2024/01/27 07:14:47;;;;;;;10.60;1.23;;;;;;;;;;4999094;28;20034;-77
2024/01/27 07:17:13;;;;;;;10.95;1.55;;;;;;;;;;4999181;28;20114;-78
2024/01/27 07:19:38;;;;;;;10.50;1.33;;;;;;;;;;4999458;28;20101;-77
2024/01/27 07:22:03;;;;;;;7.57;1.42;;;;;;;;;;4981442;28;20022;-78
2024/01/27 07:24:29;;;;;;;5.73;1.17;;;;;;;;;;4998366;28;20033;-78
2024/01/27 07:26:54;;;;;;;10.35;1.40;;;;;;;;;;4998422;28;20268;-78
2024/01/27 07:29:20;;;;;;;3.97;1.08;;;;;;;;;;4997865;28;20041;-78
2024/01/27 07:31:46;;;;;;;7.63;1.20;;;;;;;;;;4997935;28;20031;-78
2024/01/27 07:34:11;;;;;;;6.85;1.30;;;;;;;;;;4999930;28;20058;-77
2024/01/27 07:36:36;;;;;;;8.60;1.27;;;;;;;;;;4995558;28;20061;-79
2024/01/27 07:39:01;;;;;;;10.07;1.33;;;;;;;;;;4995922;28;20264;-78
2024/01/27 07:41:27;;;;;;;11.43;1.93;;;;;;;;;;4997637;28;20038;-79
2024/01/27 07:43:54;;;;;;;10.25;1.63;;;;;;;;;;4998114;28;20275;-81
2024/01/27 07:46:21;;;;;;;4.97;1.30;;;;;;;;;;4997681;28;20112;-81
2024/01/27 07:48:47;;;;;;;11.05;1.70;;;;;;;;;;4997962;28;20026;-78
2024/01/27 07:51:12;;;;;;;9.10;1.75;;;;;;;;;;4998069;28;20026;-77
2024/01/27 07:53:37;;;;;;;11.43;1.43;;;;;;;;;;4999012;28;20028;-78
2024/01/27 07:56:03;;;;;;;8.03;1.70;;;;;;;;;;4998698;28;20251;-78
2024/01/27 07:58:28;;;;;;;6.75;1.42;;;;;;;;;;4998698;28;20344;-78
2024/01/27 08:00:54;;;;;;;9.17;1.50;;;;;;;;;;4997024;28;20034;-77
2024/01/27 08:03:19;;;;;;;8.80;1.33;;;;;;;;;;4996491;28;20327;-77
2024/01/27 08:05:45;;;;;;;4.73;1.10;;;;;;;;;;4996833;28;20411;-76
2024/01/27 08:08:10;;;;;;;5.97;1.10;;;;;;;;;;4997604;28;20651;-80
2024/01/27 08:10:36;;;;;;;8.15;1.85;;;;;;;;;;4999480;28;20572;-80
2024/01/27 08:13:02;;;;;;;9.10;1.55;;;;;;;;;;4996991;28;20030;-76
2024/01/27 08:15:27;;;;;;;11.85;1.80;;;;;;;;;;4979874;28;20026;-78
2024/01/27 08:17:52;;;;;;;5.53;1.50;;;;;;;;;;4995660;28;20096;-77
2024/01/27 08:20:17;;;;;;;7.87;1.60;;;;;;;;;;4998363;28;20647;-79
2024/01/27 08:22:42;;;;;;;9.77;1.90;;;;;;;;;;4978689;28;20605;-78
2024/01/27 08:25:08;;;;;;;11.05;1.75;;;;;;;;;;4995474;28;20627;-78
2024/01/27 08:27:33;;;;;;;9.20;1.70;;;;;;;;;;4977915;28;20414;-78
2024/01/27 08:29:58;;;;;;;4.63;1.15;;;;;;;;;;4995524;28;20022;-78
2024/01/27 08:32:24;;;;;;;7.47;1.40;;;;;;;;;;4996076;28;20109;-78
2024/01/27 08:34:49;;;;;;;10.55;1.80;;;;;;;;;;4995700;28;20371;-78
2024/01/27 08:37:17;;;;;;;3.77;1.00;;;;;;;;;;4995867;28;20030;-79
2024/01/27 08:39:43;;;;;;;10.32;1.55;;;;;;;;;;4995928;28;20252;-78
2024/01/27 08:42:08;;;;;;;6.07;1.00;;;;;;;;;;4995677;28;20022;-77
2024/01/27 08:44:33;;;;;;;6.80;1.13;;;;;;;;;;4996053;28;20030;-78
2024/01/27 08:46:58;;;;;;;14.40;1.57;;;;;;;;;;4995440;28;20283;-77
2024/01/27 08:49:23;;;;;;;8.27;1.30;;;;;;;;;;4996112;28;20256;-77
2024/01/27 08:51:50;;;;;;;12.20;1.50;;;;;;;;;;4996912;28;20299;-76
2024/01/27 08:54:15;;;;;;;8.80;1.70;;;;;;;;;;4993826;28;20490;-77
2024/01/27 08:56:41;;;;;;;9.30;1.63;;;;;;;;;;4995810;28;20762;-78
2024/01/27 08:59:06;;;;;;;7.63;1.40;;;;;;;;;;4996514;28;20264;-78
2024/01/27 09:01:31;;;;;;;10.45;1.80;;;;;;;;;;4979186;28;20077;-77
2024/01/27 09:03:56;;;;;;;9.90;1.90;;;;;;;;;;4979550;28;20076;-78
2024/01/27 09:06:22;;;;;;;14.38;3.58;;;;;;;;;;4996047;28;20280;-78
2024/01/27 09:08:47;;;;;;;2.22;1.05;;;;;;;;;;4996920;28;20164;-77
2024/01/27 09:11:12;;;;;;;7.60;1.70;;;;;;;;;;4995759;28;20018;-76
2024/01/27 09:13:37;;;;;;;7.57;1.67;;;;;;;;;;4994220;28;20375;-76
2024/01/27 09:16:03;;;;;;;4.25;1.13;;;;;;;;;;4995067;28;20077;-76
2024/01/27 09:18:28;;;;;;;11.77;1.42;;;;;;;;;;4993420;28;20030;-77
2024/01/27 09:20:53;;;;;;;7.93;1.80;;;;;;;;;;4994390;28;20054;-77
2024/01/27 09:23:19;;;;;;;5.93;1.60;;;;;;;;;;4994203;28;20030;-77
2024/01/27 09:25:44;;;;;;;13.52;1.95;;;;;;;;;;4992522;28;20437;-77
2024/01/27 09:28:09;;;;;;;7.07;1.40;;;;;;;;;;4994366;28;20440;-77
2024/01/27 09:30:34;;;;;;;10.85;2.03;;;;;;;;;;4994081;28;20022;-77
2024/01/27 09:33:00;;;;;;;9.10;1.77;;;;;;;;;;4993837;28;20046;-77
2024/01/27 09:35:25;;;;;;;6.90;1.52;;;;;;;;;;4993966;28;20420;-77
2024/01/27 09:37:50;;;;;;;10.23;1.67;;;;;;;;;;4993291;28;20018;-79
2024/01/27 09:40:16;;;;;;;5.20;1.42;;;;;;;;;;4978007;28;20034;-77
2024/01/27 09:42:50;;;;;;;10.63;3.13;;;;;;;;;;4995956;28;20117;-81
2024/01/27 09:45:15;;;;;;;6.35;1.13;;;;;;;;;;4996324;28;20022;-82
2024/01/27 09:47:42;;;;;;;11.70;1.45;;;;;;;;;;4996590;28;20536;-78
2024/01/27 09:50:10;;;;;;;11.63;1.70;;;;;;;;;;4997725;28;20029;-79
2024/01/27 09:52:36;;;;;;;18.00;4.35;;;;;;;;;;4979351;28;20098;-77
2024/01/27 09:55:01;;;;;;;12.63;1.45;;;;;;;;;;4995636;28;20030;-78
2024/01/27 09:57:27;;;;;;;7.50;1.60;;;;;;;;;;4994598;28;20429;-78
2024/01/27 09:59:53;;;;;;;12.55;1.73;;;;;;;;;;4994185;28;20041;-78
2024/01/27 10:02:18;;;;;;;11.43;1.65;;;;;;;;;;4994320;28;20485;-77
2024/01/27 10:04:48;;;;;;;11.50;1.52;;;;;;;;;;4977079;28;20026;-77
2024/01/27 10:07:13;;;;;;;14.13;1.55;;;;;;;;;;4977774;28;20019;-78
2024/01/27 10:09:40;;;;;;;6.32;1.58;;;;;;;;;;4995847;28;20035;-76
2024/01/27 10:12:07;;;;;;;9.27;1.40;;;;;;;;;;4995832;28;20022;-76
2024/01/27 10:14:44;;;;;;;9.52;1.55;;;;;;;;;;4995932;28;20080;-77
2024/01/27 10:17:11;;;;;;;11.05;2.00;;;;;;;;;;4995779;28;20019;-77
2024/01/27 10:19:37;;;;;;;11.73;1.83;;;;;;;;;;4994983;28;20115;-77
2024/01/27 10:22:02;;;;;;;9.77;1.60;;;;;;;;;;4977967;28;20034;-80
2024/01/27 10:24:28;;;;;;;16.17;2.05;;;;;;;;;;4993746;28;20030;-77
2024/01/27 10:27:03;;;;;;;13.02;1.85;;;;;;;;;;4993332;28;20034;-77
2024/01/27 10:29:30;;;;;;;9.32;2.20;;;;;;;;;;4993844;28;20402;-77
2024/01/27 10:31:55;;;;;;;10.45;1.50;;;;;;;;;;4995609;28;20027;-77
2024/01/27 10:34:20;;;;;;;5.93;1.90;;;;;;;;;;4992884;28;20061;-78
2024/01/27 10:36:45;;;;;;;8.88;1.50;;;;;;;;;;4994106;28;20093;-78
2024/01/27 10:39:15;;;;;;;13.70;1.88;;;;;;;;;;4994530;28;20034;-78
2024/01/27 10:41:43;;;;;;;12.95;1.75;;;;;;;;;;4995129;28;20474;-78
2024/01/27 10:44:11;;;;;;;11.18;2.08;;;;;;;;;;4995012;28;20030;-78
2024/01/27 10:46:37;;;;;;;12.60;1.92;;;;;;;;;;4994675;28;20188;-77
2024/01/27 10:49:05;;;;;;;7.38;1.60;;;;;;;;;;4992789;28;20117;-77
2024/01/27 10:51:32;;;;;;;13.45;1.77;;;;;;;;;;4994865;28;20089;-77
2024/01/27 10:54:06;;;;;;;9.13;1.90;;;;;;;;;;4994015;28;20018;-77
2024/01/27 10:56:33;;;;;;;6.75;1.58;;;;;;;;;;4993703;28;20101;-78
2024/01/27 10:58:59;;;;;;;4.95;1.65;;;;;;;;;;4977735;28;20030;-78
2024/01/27 11:01:26;;;;;;;7.50;2.10;;;;;;;;;;4995073;28;20041;-78
2024/01/27 11:03:54;;;;;;;7.30;2.17;;;;;;;;;;4994153;28;20030;-77
2024/01/27 11:06:22;;;;;;;12.18;2.13;;;;;;;;;;4993222;28;20030;-80
2024/01/27 11:08:49;;;;;;;10.82;2.10;;;;;;;;;;4997522;28;20401;-77
2024/01/27 11:11:14;;;;;;;10.77;1.90;;;;;;;;;;4997039;28;20030;-77
2024/01/27 11:13:40;;;;;;;5.13;1.50;;;;;;;;;;4996378;28;20084;-77
2024/01/27 11:16:06;;;;;;;12.40;2.08;;;;;;;;;;4996767;28;20032;-77
2024/01/27 11:18:32;;;;;;;9.10;2.00;;;;;;;;;;4997141;28;20038;-78
2024/01/27 11:20:58;;;;;;;8.63;1.90;;;;;;;;;;4997074;28;20026;-76
2024/01/27 11:23:35;;;;;;;15.32;2.50;;;;;;;;;;4996742;28;20073;-77
2024/01/27 11:26:04;;;;;;;11.05;1.85;;;;;;;;;;4997345;28;20400;-77
2024/01/27 11:28:30;;;;;;;7.70;2.20;;;;;;;;;;4998515;28;20026;-76
2024/01/27 11:30:55;;;;;;;13.02;2.33;;;;;;;;;;4981540;28;20049;-78
2024/01/27 11:33:24;;;;;;;12.77;2.70;;;;;;;;;;4979070;28;20181;-78
2024/01/27 11:35:59;;;;;;;7.18;1.45;;;;;;;;;;4996473;28;20046;-78
2024/01/27 11:38:25;;;;;;;16.50;2.30;;;;;;;;;;4996778;28;20116;-77
2024/01/27 11:40:50;;;;;;;8.00;2.03;;;;;;;;;;4997074;28;20429;-77
2024/01/27 11:43:15;;;;;;;19.13;1.83;;;;;;;;;;4994554;28;20616;-78
2024/01/27 11:45:41;;;;;;;8.85;2.38;;;;;;;;;;4995767;28;20675;-78
2024/01/27 11:48:06;;;;;;;8.02;1.98;;;;;;;;;;5002236;28;20065;-80
2024/01/27 11:50:32;;;;;;;9.10;2.00;;;;;;;;;;5003704;28;20050;-83
2024/01/27 11:52:57;;;;;;;8.50;2.10;;;;;;;;;;4982089;28;20084;-79
2024/01/27 11:55:22;;;;;;;12.88;1.60;;;;;;;;;;4981320;28;20018;-78
2024/01/27 11:57:48;;;;;;;9.02;1.90;;;;;;;;;;5000726;28;20018;-78
2024/01/27 12:00:14;;;;;;;10.68;1.85;;;;;;;;;;5000029;28;20030;-77
2024/01/27 12:02:39;;;;;;;5.28;1.73;;;;;;;;;;4994776;28;20489;-78
2024/01/27 12:05:15;;;;;;;12.32;1.80;;;;;;;;;;4996657;28;20026;-77
2024/01/27 12:07:40;;;;;;;7.53;1.67;;;;;;;;;;4978622;28;20030;-77
2024/01/27 12:10:07;;;;;;;6.25;1.50;;;;;;;;;;4996081;28;20037;-77
2024/01/27 12:12:32;;;;;;;10.90;1.92;;;;;;;;;;4997793;28;20029;-77
2024/01/27 12:14:59;;;;;;;11.13;2.33;;;;;;;;;;4996510;28;20018;-77
2024/01/27 12:17:25;;;;;;;9.75;1.70;;;;;;;;;;4996565;28;20022;-78
2024/01/27 12:19:53;;;;;;;8.57;2.10;;;;;;;;;;4994162;28;20037;-77
2024/01/27 12:22:26;;;;;;;10.15;2.20;;;;;;;;;;4995838;28;20033;-77
2024/01/27 12:24:53;;;;;;;12.75;2.10;;;;;;;;;;4996629;28;20498;-79
2024/01/27 12:27:18;;;;;;;13.35;2.13;;;;;;;;;;4996468;28;20057;-78
2024/01/27 12:29:47;;;;;;;7.63;1.88;;;;;;;;;;4996535;28;20026;-78
2024/01/27 12:32:12;;;;;;;8.80;1.50;;;;;;;;;;4996881;28;20485;-78
2024/01/27 12:34:41;;;;;;;10.93;2.20;;;;;;;;;;4997868;28;20030;-79
2024/01/27 12:37:08;;;;;;;11.55;1.77;;;;;;;;;;4997552;28;20779;-78
2024/01/27 12:39:33;;;;;;;10.93;1.67;;;;;;;;;;4979506;28;20081;-77
2024/01/27 12:41:58;;;;;;;7.18;1.98;;;;;;;;;;4995793;28;20022;-77
2024/01/27 12:44:23;;;;;;;8.77;1.92;;;;;;;;;;4979189;28;20022;-78
2024/01/27 12:46:49;;;;;;;7.45;1.50;;;;;;;;;;4996073;28;20041;-78
2024/01/27 12:49:14;;;;;;;9.60;1.55;;;;;;;;;;4995856;28;20066;-78
2024/01/27 12:51:39;;;;;;;12.95;2.10;;;;;;;;;;4995837;28;20113;-77
2024/01/27 12:54:04;;;;;;;7.73;1.60;;;;;;;;;;4996847;28;20481;-78
2024/01/27 12:56:30;;;;;;;8.20;1.50;;;;;;;;;;4978252;28;20821;-77
2024/01/27 12:58:55;;;;;;;7.00;1.60;;;;;;;;;;4996074;28;20740;-76
2024/01/27 13:01:20;;;;;;;4.32;1.60;;;;;;;;;;4994942;28;20113;-78
2024/01/27 13:03:45;;;;;;;11.23;1.50;;;;;;;;;;4994833;28;20478;-76
2024/01/27 13:06:11;;;;;;;10.48;2.30;;;;;;;;;;4994929;28;20076;-76
2024/01/27 13:08:36;;;;;;;7.82;1.60;;;;;;;;;;4994518;28;20049;-77
2024/01/27 13:11:02;;;;;;;12.80;2.33;;;;;;;;;;4993589;28;20029;-76
2024/01/27 13:13:28;;;;;;;9.98;2.05;;;;;;;;;;4994737;28;20504;-77
2024/01/27 13:15:53;;;;;;;11.05;1.98;;;;;;;;;;4994961;28;20061;-77
2024/01/27 13:18:18;;;;;;;8.65;1.77;;;;;;;;;;4976987;28;20022;-76
2024/01/27 13:20:43;;;;;;;5.25;1.17;;;;;;;;;;4977863;28;20022;-77
2024/01/27 13:23:09;;;;;;;8.23;1.50;;;;;;;;;;4994586;28;20022;-77
2024/01/27 13:25:34;;;;;;;7.13;1.67;;;;;;;;;;4994272;28;20332;-76
2024/01/27 13:27:59;;;;;;;5.93;1.60;;;;;;;;;;4994390;28;20066;-77
2024/01/27 13:30:25;;;;;;;13.00;2.10;;;;;;;;;;4993636;28;20026;-77
2024/01/27 13:32:50;;;;;;;6.10;1.20;;;;;;;;;;4993216;28;20260;-76
2024/01/27 13:35:15;;;;;;;12.45;1.50;;;;;;;;;;4994093;28;20030;-77
2024/01/27 13:37:41;;;;;;;11.30;1.90;;;;;;;;;;4977005;28;20486;-77
2024/01/27 13:40:09;;;;;;;10.70;1.88;;;;;;;;;;4977461;28;20022;-76
2024/01/27 13:42:35;;;;;;;10.57;1.50;;;;;;;;;;4994056;28;20478;-77
2024/01/27 13:45:00;;;;;;;5.70;1.58;;;;;;;;;;4994876;28;20038;-78
2024/01/27 13:47:26;;;;;;;8.20;1.90;;;;;;;;;;4994646;28;20401;-76
2024/01/27 13:49:51;;;;;;;10.30;1.73;;;;;;;;;;4994305;28;20621;-78
2024/01/27 13:52:17;;;;;;;3.35;1.13;;;;;;;;;;4994138;28;20022;-77
2024/01/27 13:54:42;;;;;;;5.40;1.60;;;;;;;;;;4993858;28;20022;-77
2024/01/27 13:57:08;;;;;;;5.93;1.50;;;;;;;;;;4994508;28;20390;-77
2024/01/27 13:59:33;;;;;;;13.10;1.85;;;;;;;;;;4977127;28;20623;-78
2024/01/27 14:01:59;;;;;;;8.93;1.83;;;;;;;;;;4993829;28;20023;-76
2024/01/27 14:04:25;;;;;;;7.30;1.48;;;;;;;;;;4994085;28;20026;-78
2024/01/27 14:06:52;;;;;;;11.00;1.90;;;;;;;;;;4977399;28;20030;-77
2024/01/27 14:09:19;;;;;;;7.93;1.70;;;;;;;;;;4992558;28;20205;-77
2024/01/27 14:11:44;;;;;;;8.07;1.80;;;;;;;;;;4993517;28;20428;-78
2024/01/27 14:14:09;;;;;;;5.27;1.67;;;;;;;;;;4975627;28;20077;-77
2024/01/27 14:16:34;;;;;;;13.20;1.57;;;;;;;;;;4975538;28;20272;-77
2024/01/27 14:19:00;;;;;;;7.40;1.58;;;;;;;;;;4995008;28;20271;-78
2024/01/27 14:21:26;;;;;;;5.73;1.63;;;;;;;;;;4993866;28;20081;-77
2024/01/27 14:23:56;;;;;;;8.32;1.67;;;;;;;;;;4992885;28;20798;-77
2024/01/27 14:26:21;;;;;;;5.68;1.67;;;;;;;;;;4993445;28;20034;-75
2024/01/27 14:28:49;;;;;;;8.27;1.97;;;;;;;;;;4992954;28;20481;-76
2024/01/27 14:31:14;;;;;;;7.13;1.45;;;;;;;;;;4992971;28;20256;-76